Time;durP1;ratioP1;P1;durP2;ratioP2;P2;SDS_P1;SDS_P2;PMS_P1;PMS_P2;Temp;Humidity;BMP_temperature;BMP_pressure;BME280_temperature;BME280_humidity;BME280_pressure;Samples;Min_cycle;Max_cycle;Signal;HPM_P1;HPM_P2
2021/12/22 00:02:09;;;;;;;1999.90;999.90;;;-2.10;99.90;;;;;;5058764;28;20410;-64
2021/12/22 00:04:43;;;;;;;1999.90;999.90;;;-2.10;99.90;;;;;;5057766;28;20051;-64
2021/12/22 00:07:09;;;;;;;1999.90;999.90;;;-2.10;99.90;;;;;;5051018;28;20399;-64
2021/12/22 00:09:35;;;;;;;1999.90;999.90;;;-2.20;99.90;;;;;;5065625;28;20051;-64
2021/12/22 00:12:01;;;;;;;1999.90;999.90;;;-2.30;99.90;;;;;;5072216;28;20041;-64
2021/12/22 00:14:26;;;;;;;1999.90;999.90;;;-2.30;99.90;;;;;;5072663;28;20509;-64
2021/12/22 00:16:52;;;;;;;1999.90;999.90;;;-2.30;99.90;;;;;;5071239;28;20393;-64
2021/12/22 00:19:18;;;;;;;1999.90;999.90;;;-2.30;99.90;;;;;;5071290;28;20064;-64
2021/12/22 00:21:44;;;;;;;1999.90;999.90;;;-2.30;99.90;;;;;;5072981;28;20536;-64
2021/12/22 00:24:09;;;;;;;1999.90;999.90;;;-2.30;99.90;;;;;;5068356;28;20641;-64
2021/12/22 00:26:35;;;;;;;1999.90;999.90;;;-2.20;99.90;;;;;;5059753;28;20127;-63
2021/12/22 00:29:01;;;;;;;1999.90;999.90;;;-2.20;99.90;;;;;;5071291;28;20131;-64
2021/12/22 00:31:27;;;;;;;1999.90;999.90;;;-2.20;99.90;;;;;;5071369;28;20044;-64
2021/12/22 00:33:55;;;;;;;1999.90;999.90;;;-2.20;99.90;;;;;;5066207;28;20060;-64
2021/12/22 00:36:22;;;;;;;1999.90;999.90;;;-2.30;99.90;;;;;;5067148;28;20049;-64
2021/12/22 00:38:50;;;;;;;1999.90;999.90;;;-2.40;99.90;;;;;;5070359;28;20049;-64
2021/12/22 00:41:16;;;;;;;1999.90;999.90;;;-2.30;99.90;;;;;;5072506;28;20040;-63
2021/12/22 00:43:41;;;;;;;1999.90;999.90;;;-2.40;99.90;;;;;;5071920;28;20117;-64
2021/12/22 00:46:08;;;;;;;1999.90;999.90;;;-2.40;99.90;;;;;;5071397;28;20051;-64
2021/12/22 00:48:34;;;;;;;1999.90;999.90;;;-2.40;99.90;;;;;;5072519;28;20106;-63
2021/12/22 00:51:00;;;;;;;1999.90;999.90;;;-2.40;99.90;;;;;;5057640;28;20049;-64
2021/12/22 00:53:27;;;;;;;1999.90;999.90;;;-2.30;99.90;;;;;;5060801;28;20052;-64
2021/12/22 00:55:53;;;;;;;1999.90;999.90;;;-2.30;99.90;;;;;;5072254;28;20433;-63
2021/12/22 00:58:20;;;;;;;1999.90;999.90;;;-2.30;99.90;;;;;;5064837;28;20484;-64
2021/12/22 01:00:47;;;;;;;1999.90;999.90;;;-2.40;99.90;;;;;;5050910;28;20044;-64
2021/12/22 01:03:14;;;;;;;1999.90;999.90;;;-2.40;99.90;;;;;;5065604;28;20052;-63
2021/12/22 01:05:40;;;;;;;1999.90;999.90;;;-2.50;99.90;;;;;;5052382;28;20056;-64
2021/12/22 01:08:06;;;;;;;1999.90;999.90;;;-2.40;99.90;;;;;;5052144;28;20068;-63
2021/12/22 01:10:32;;;;;;;1999.90;999.90;;;-2.40;99.90;;;;;;5060434;28;20044;-64
2021/12/22 01:13:00;;;;;;;1999.90;999.90;;;-2.40;99.90;;;;;;5075931;28;20047;-63
2021/12/22 01:15:27;;;;;;;1999.90;999.90;;;-2.50;99.90;;;;;;5073745;28;20052;-64
2021/12/22 01:18:01;;;;;;;1999.90;999.90;;;-2.50;99.90;;;;;;5076104;28;20040;-64
2021/12/22 01:20:33;;;;;;;1999.90;999.90;;;-2.50;99.90;;;;;;5074549;28;20087;-64
2021/12/22 01:23:06;;;;;;;1999.90;999.90;;;-2.60;99.90;;;;;;5075723;28;20043;-63
2021/12/22 01:25:32;;;;;;;;;;;-2.60;99.90;;;;;;5061686;28;20497;-63
2021/12/22 01:27:58;;;;;;;1999.90;999.90;;;-2.60;99.90;;;;;;5055636;28;20380;-64
2021/12/22 01:30:29;;;;;;;1999.90;999.90;;;-2.60;99.90;;;;;;5066124;28;20093;-63
2021/12/22 01:32:57;;;;;;;1999.90;999.90;;;-2.60;99.90;;;;;;5064294;28;20061;-64
2021/12/22 01:35:26;;;;;;;1999.90;999.90;;;-2.50;99.90;;;;;;5065248;28;20083;-63
2021/12/22 01:37:52;;;;;;;1999.90;999.90;;;-2.60;99.90;;;;;;5064451;28;20465;-63
2021/12/22 01:40:20;;;;;;;1999.90;999.90;;;-2.60;99.90;;;;;;5065753;28;20045;-64
2021/12/22 01:42:47;;;;;;;1999.90;999.90;;;-2.60;99.90;;;;;;5064272;28;20077;-63
2021/12/22 01:45:30;;;;;;;1999.90;999.90;;;-2.60;99.90;;;;;;5063960;28;20044;-63
2021/12/22 01:50:49;;;;;;;1999.90;999.90;;;-2.60;99.90;;;;;;5033733;28;20407;-64
2021/12/22 01:53:21;;;;;;;1999.90;999.90;;;-2.70;99.90;;;;;;5035540;28;20531;-64
2021/12/22 01:56:00;;;;;;;1999.90;999.90;;;-2.70;99.90;;;;;;5047872;28;20132;-63
2021/12/22 01:58:34;;;;;;;1999.90;999.90;;;-2.70;99.90;;;;;;5053603;28;20049;-63
2021/12/22 02:01:03;;;;;;;1999.90;999.90;;;-2.70;99.90;;;;;;5054938;28;20041;-63
2021/12/22 02:03:29;;;;;;;1999.90;999.90;;;-2.60;99.90;;;;;;5057924;28;20055;-63
2021/12/22 02:05:56;;;;;;;1999.90;999.90;;;-2.60;99.90;;;;;;5074781;28;20396;-63
2021/12/22 02:08:22;;;;;;;1999.90;999.90;;;-2.60;99.90;;;;;;5074725;28;20139;-63
2021/12/22 02:10:48;;;;;;;1999.90;999.90;;;-2.60;99.90;;;;;;5074277;28;20483;-63
2021/12/22 02:13:19;;;;;;;1999.90;999.90;;;-2.70;99.90;;;;;;5074236;28;20037;-63
2021/12/22 02:15:47;;;;;;;1999.90;999.90;;;-2.70;99.90;;;;;;5075156;28;20049;-63
2021/12/22 02:18:17;;;;;;;1999.90;999.90;;;-2.70;99.90;;;;;;5073746;28;20040;-63
2021/12/22 02:20:44;;;;;;;1999.90;999.90;;;-2.70;99.90;;;;;;5073887;28;20170;-63
2021/12/22 02:23:10;;;;;;;1999.90;999.90;;;-2.70;99.90;;;;;;5034817;28;20046;-63
2021/12/22 02:25:44;;;;;;;1999.90;999.90;;;-2.70;99.90;;;;;;5049170;28;20490;-63
2021/12/22 02:28:17;;;;;;;1999.90;999.90;;;-2.70;99.90;;;;;;5054335;28;20045;-63
2021/12/22 02:30:43;;;;;;;1999.90;999.90;;;-2.80;99.90;;;;;;5063071;28;20052;-63
2021/12/22 02:33:21;;;;;;;1999.90;999.90;;;-2.80;99.90;;;;;;5073059;28;20063;-63
2021/12/22 02:36:08;;;;;;;1999.90;999.90;;;-2.90;99.90;;;;;;5052713;28;20049;-63
2021/12/22 02:38:39;;;;;;;1999.90;999.90;;;-2.90;99.90;;;;;;5054535;28;20044;-63
2021/12/22 02:41:08;;;;;;;1999.90;999.90;;;-2.90;99.90;;;;;;5074418;28;20068;-63
2021/12/22 02:43:42;;;;;;;1999.90;999.90;;;-2.90;99.90;;;;;;5073969;28;20052;-63
2021/12/22 02:46:08;;;;;;;1999.90;999.90;;;-2.90;99.90;;;;;;5072417;28;20040;-63
2021/12/22 02:48:34;;;;;;;1999.90;999.90;;;-3.00;99.90;;;;;;5073799;28;20132;-63
2021/12/22 02:51:01;;;;;;;1999.90;999.90;;;-3.10;99.90;;;;;;5058775;28;20045;-63
2021/12/22 02:53:39;;;;;;;1999.90;999.90;;;-3.10;99.90;;;;;;5053152;28;20427;-63
2021/12/22 02:56:25;;;;;;;1999.90;999.90;;;-3.20;99.90;;;;;;5054194;28;20129;-63
2021/12/22 03:04:07;;;;;;;1999.90;999.90;;;-3.20;99.90;;;;;;5053968;28;20084;-63
2021/12/22 03:06:38;;;;;;;1999.90;999.90;;;-3.20;99.90;;;;;;5065866;28;20082;-63
2021/12/22 03:09:16;;;;;;;1999.90;999.90;;;-3.30;99.90;;;;;;5073890;28;20045;-63
2021/12/22 03:11:42;;;;;;;1999.90;999.90;;;-3.30;99.90;;;;;;5073696;28;20036;-63
2021/12/22 03:14:08;;;;;;;1999.90;999.90;;;-3.30;99.90;;;;;;5071799;28;20675;-63
2021/12/22 03:16:34;;;;;;;1999.90;999.90;;;-3.20;99.90;;;;;;5073790;28;20044;-63
2021/12/22 03:18:59;;;;;;;1999.90;999.90;;;-3.20;99.90;;;;;;5073599;28;20113;-63
2021/12/22 03:21:25;;;;;;;1999.90;999.90;;;-3.20;99.90;;;;;;5072695;28;20531;-62
2021/12/22 03:23:53;;;;;;;1999.90;999.90;;;-3.20;99.90;;;;;;5063208;28;20377;-62
2021/12/22 03:26:22;;;;;;;1999.90;999.90;;;-3.30;99.90;;;;;;5053475;28;20049;-63
2021/12/22 03:28:48;;;;;;;1999.90;999.90;;;-3.40;99.90;;;;;;5051929;28;20040;-63
2021/12/22 03:31:14;;;;;;;1999.90;999.90;;;-3.50;99.90;;;;;;5052807;28;20084;-62
2021/12/22 03:33:41;;;;;;;1999.90;999.90;;;-3.50;99.90;;;;;;5066359;28;20052;-63
2021/12/22 03:36:06;;;;;;;1999.90;999.90;;;-3.50;99.90;;;;;;5052713;28;20045;-62
2021/12/22 03:38:34;;;;;;;1999.90;999.90;;;-3.50;99.90;;;;;;5053304;28;20068;-63
2021/12/22 03:41:01;;;;;;;1999.90;999.90;;;-3.50;99.90;;;;;;5057339;28;20044;-62
2021/12/22 03:43:27;;;;;;;1999.90;999.90;;;-3.60;99.90;;;;;;5070761;28;20517;-62
2021/12/22 03:45:53;;;;;;;1999.90;999.90;;;-3.60;99.90;;;;;;5061572;28;20044;-62
2021/12/22 03:48:19;;;;;;;1999.90;999.90;;;-3.70;99.90;;;;;;5061487;28;20439;-62
2021/12/22 03:50:45;;;;;;;1999.90;999.90;;;-3.70;99.90;;;;;;5072007;28;20101;-62
2021/12/22 03:53:11;;;;;;;1999.90;999.90;;;-3.70;99.90;;;;;;5073028;28;20055;-62
2021/12/22 03:55:37;;;;;;;1999.90;999.90;;;-3.70;99.90;;;;;;5072023;28;20048;-62
2021/12/22 03:58:03;;;;;;;1999.90;999.90;;;-3.70;99.90;;;;;;5067611;28;20052;-62
2021/12/22 04:00:30;;;;;;;1999.90;999.90;;;-3.80;99.90;;;;;;5033068;28;20041;-62
2021/12/22 04:02:56;;;;;;;1999.90;999.90;;;-3.80;99.90;;;;;;5034006;28;20057;-62
2021/12/22 04:05:22;;;;;;;1999.90;999.90;;;-3.80;99.90;;;;;;5051212;28;20041;-62
2021/12/22 04:07:48;;;;;;;1999.90;999.90;;;-3.80;99.90;;;;;;5059881;28;20170;-62
2021/12/22 04:10:22;;;;;;;1999.90;999.90;;;-3.80;99.90;;;;;;5067242;28;20067;-62
2021/12/22 04:12:51;;;;;;;1999.90;999.90;;;-3.80;99.90;;;;;;5060582;28;20399;-62
2021/12/22 04:15:18;;;;;;;1999.90;999.90;;;-3.80;99.90;;;;;;5061481;28;20063;-62
2021/12/22 04:17:44;;;;;;;1999.90;999.90;;;-3.70;99.90;;;;;;5063506;28;20033;-62
2021/12/22 04:20:11;;;;;;;1999.90;999.90;;;-3.70;99.90;;;;;;5062452;28;20471;-62
2021/12/22 04:22:38;;;;;;;1999.90;999.90;;;-3.70;99.90;;;;;;5061327;28;20708;-62
2021/12/22 04:25:06;;;;;;;1999.90;999.90;;;-3.70;99.90;;;;;;5062979;28;20041;-62
2021/12/22 04:27:32;;;;;;;1999.90;999.90;;;-3.80;99.90;;;;;;5072577;28;20053;-62
2021/12/22 04:29:57;;;;;;;1999.90;999.90;;;-3.80;99.90;;;;;;5072405;28;20125;-62
2021/12/22 04:32:23;;;;;;;1999.90;999.90;;;-3.80;99.90;;;;;;5072248;28;20056;-62
2021/12/22 04:34:49;;;;;;;1999.90;999.90;;;-3.90;99.90;;;;;;5069935;28;20051;-62
2021/12/22 04:37:15;;;;;;;1999.90;999.90;;;-3.90;99.90;;;;;;5071750;28;20411;-62
2021/12/22 04:39:41;;;;;;;1999.90;999.90;;;-4.00;99.90;;;;;;5070963;28;20056;-62
2021/12/22 04:42:07;;;;;;;1999.90;999.90;;;-4.00;99.90;;;;;;5075098;28;20044;-62
2021/12/22 04:44:33;;;;;;;1999.90;999.90;;;-4.10;99.90;;;;;;5073874;28;20052;-62
2021/12/22 04:46:59;;;;;;;1999.90;999.90;;;-4.10;99.90;;;;;;5076640;28;20055;-62
2021/12/22 04:49:26;;;;;;;1999.90;999.90;;;-4.10;99.90;;;;;;5074358;28;20044;-62
2021/12/22 04:51:54;;;;;;;1999.90;999.90;;;-4.20;99.90;;;;;;5061509;28;20044;-62
2021/12/22 04:56:54;;;;;;;1999.90;999.90;;;-4.30;99.90;;;;;;5076199;28;20044;-62
2021/12/22 04:59:20;;;;;;;1999.90;999.90;;;-4.20;99.90;;;;;;5059360;28;20592;-62
2021/12/22 05:01:46;;;;;;;1999.90;999.90;;;-4.20;99.90;;;;;;5071324;28;20075;-62
2021/12/22 05:04:12;;;;;;;1999.90;999.90;;;-4.30;99.90;;;;;;5063741;28;20084;-62
2021/12/22 05:06:38;;;;;;;1999.90;999.90;;;-4.30;99.90;;;;;;5054926;28;20099;-61
2021/12/22 05:09:04;;;;;;;1999.90;999.90;;;-4.30;99.90;;;;;;5057897;28;20048;-62
2021/12/22 05:11:31;;;;;;;1999.90;999.90;;;-4.40;99.90;;;;;;5075830;28;20036;-62
2021/12/22 05:13:56;;;;;;;1999.90;999.90;;;-4.40;99.90;;;;;;5073828;28;20472;-62
2021/12/22 05:16:22;;;;;;;1999.90;999.90;;;-4.40;99.90;;;;;;5075963;28;20123;-62
2021/12/22 05:21:15;;;;;;;1999.90;999.90;;;-4.50;99.90;;;;;;5054875;28;20495;-62
2021/12/22 05:23:41;;;;;;;1999.90;999.90;;;-4.50;99.90;;;;;;5055971;28;20052;-62
2021/12/22 05:26:06;;;;;;;1999.90;999.90;;;-4.50;99.90;;;;;;5054011;28;20407;-62
2021/12/22 05:28:32;;;;;;;1999.90;999.90;;;-4.50;99.90;;;;;;5071667;28;20048;-62
2021/12/22 05:30:58;;;;;;;1999.90;999.90;;;-4.50;99.90;;;;;;5075921;28;20052;-62
2021/12/22 05:33:24;;;;;;;1999.90;999.90;;;-4.50;99.90;;;;;;5068181;28;20037;-62
2021/12/22 05:35:49;;;;;;;1999.90;999.90;;;-4.60;99.90;;;;;;5066314;28;20101;-62
2021/12/22 05:38:17;;;;;;;1999.90;999.90;;;-4.50;99.90;;;;;;5064446;28;20040;-62
2021/12/22 05:40:43;;;;;;;1999.90;999.90;;;-4.60;99.90;;;;;;5058491;28;20033;-62
2021/12/22 05:43:09;;;;;;;1999.90;999.90;;;-4.60;99.90;;;;;;5055467;28;20381;-62
2021/12/22 05:45:35;;;;;;;1999.90;999.90;;;-4.60;99.90;;;;;;5066668;28;20048;-62
2021/12/22 05:48:00;;;;;;;1999.90;999.90;;;-4.60;99.90;;;;;;5074750;28;20055;-62
2021/12/22 05:50:26;;;;;;;1999.90;999.90;;;-4.60;99.90;;;;;;5064791;28;20052;-62
2021/12/22 05:52:52;;;;;;;1999.90;999.90;;;-4.50;99.90;;;;;;5053315;28;20124;-62
2021/12/22 05:55:18;;;;;;;1999.90;999.90;;;-4.60;99.90;;;;;;5054128;28;20407;-62
2021/12/22 05:57:44;;;;;;;1999.90;999.90;;;-4.60;99.90;;;;;;5055273;28;20049;-62
2021/12/22 06:00:11;;;;;;;1999.90;999.90;;;-4.50;99.90;;;;;;5054991;28;20044;-62
2021/12/22 06:02:38;;;;;;;1999.90;999.90;;;-4.50;99.90;;;;;;5059885;28;20128;-62
2021/12/22 06:05:04;;;;;;;1999.90;999.90;;;-4.60;99.90;;;;;;5055702;28;20474;-62
2021/12/22 06:07:30;;;;;;;1999.90;999.90;;;-4.60;99.90;;;;;;5054903;28;20049;-62
2021/12/22 06:09:55;;;;;;;1999.90;999.90;;;-4.60;99.90;;;;;;5053669;28;20057;-62
2021/12/22 06:12:21;;;;;;;1999.90;999.90;;;-4.60;99.90;;;;;;5053461;28;20102;-62
2021/12/22 06:14:47;;;;;;;1999.90;999.90;;;-4.60;99.90;;;;;;5064469;28;20052;-62
2021/12/22 06:17:14;;;;;;;1999.90;999.90;;;-4.60;99.90;;;;;;5064860;28;20033;-62
2021/12/22 06:19:39;;;;;;;1999.90;999.90;;;-4.60;99.90;;;;;;5065303;28;20115;-62
2021/12/22 06:22:05;;;;;;;1999.90;999.90;;;-4.70;99.90;;;;;;5074769;28;20516;-62
2021/12/22 06:24:31;;;;;;;1999.90;999.90;;;-4.70;99.90;;;;;;5060067;28;20053;-62
2021/12/22 06:26:58;;;;;;;1999.90;999.90;;;-4.80;99.90;;;;;;5054453;28;20171;-62
2021/12/22 06:29:24;;;;;;;1999.90;999.90;;;-4.80;99.90;;;;;;5064724;28;20053;-62
2021/12/22 06:31:50;;;;;;;1999.90;999.90;;;-4.80;99.90;;;;;;5062905;28;20047;-62
2021/12/22 06:34:16;;;;;;;1999.90;999.90;;;-4.80;99.90;;;;;;5064726;28;20048;-62
2021/12/22 06:36:42;;;;;;;1999.90;999.90;;;-4.80;99.90;;;;;;5062912;28;20463;-62
2021/12/22 06:39:08;;;;;;;1999.90;999.90;;;-4.80;99.90;;;;;;5063077;28;20064;-62
2021/12/22 06:41:34;;;;;;;1999.90;999.90;;;-4.80;99.90;;;;;;5067251;28;20071;-62
2021/12/22 06:44:00;;;;;;;1999.90;999.90;;;-4.70;99.90;;;;;;5072187;28;20060;-62
2021/12/22 06:46:26;;;;;;;1999.90;999.90;;;-4.70;99.90;;;;;;5073929;28;20094;-62
2021/12/22 06:48:51;;;;;;;1999.90;999.90;;;-4.60;99.90;;;;;;5073632;28;20135;-62
2021/12/22 06:51:17;;;;;;;1999.90;999.90;;;-4.60;99.90;;;;;;5054726;28;20092;-62
2021/12/22 06:53:43;;;;;;;1999.90;999.90;;;-4.60;99.90;;;;;;5054128;28;20053;-62
2021/12/22 06:56:09;;;;;;;1999.90;999.90;;;-4.60;99.90;;;;;;5053431;28;20430;-62
2021/12/22 06:58:35;;;;;;;1999.90;999.90;;;-4.60;99.90;;;;;;5053435;28;20053;-62
2021/12/22 07:01:01;;;;;;;1999.90;999.90;;;-4.60;99.90;;;;;;5053799;28;20045;-62
2021/12/22 07:03:27;;;;;;;1999.90;999.90;;;-4.60;99.90;;;;;;5035476;28;20410;-62
2021/12/22 07:05:53;;;;;;;1999.90;999.90;;;-4.60;99.90;;;;;;5070551;28;20045;-62
2021/12/22 07:08:18;;;;;;;1999.90;999.90;;;-4.60;99.90;;;;;;5073509;28;20053;-62
2021/12/22 07:10:44;;;;;;;1999.90;999.90;;;-4.60;99.90;;;;;;5073663;28;20056;-62
2021/12/22 07:13:11;;;;;;;1999.90;999.90;;;-4.60;99.90;;;;;;5068021;28;20480;-62
2021/12/22 07:15:37;;;;;;;1999.90;999.90;;;-4.70;99.90;;;;;;5053542;28;20048;-62
2021/12/22 07:18:08;;;;;;;1999.90;999.90;;;-4.60;99.90;;;;;;5053476;28;20041;-62
2021/12/22 07:20:34;;;;;;;1999.90;999.90;;;-4.70;99.90;;;;;;5052856;28;20087;-62
2021/12/22 07:23:00;;;;;;;1999.90;999.90;;;-4.70;99.90;;;;;;5066286;28;20051;-62
2021/12/22 07:25:26;;;;;;;1999.90;999.90;;;-4.70;99.90;;;;;;5059087;28;20045;-62
2021/12/22 07:27:52;;;;;;;1999.90;999.90;;;-4.60;99.90;;;;;;5052572;28;20155;-62
2021/12/22 07:30:18;;;;;;;1999.90;999.90;;;-4.60;99.90;;;;;;5053073;28;20547;-62
2021/12/22 07:32:43;;;;;;;1999.90;999.90;;;-4.70;99.90;;;;;;5052971;28;20051;-62
2021/12/22 07:35:17;;;;;;;1999.90;999.90;;;-4.70;99.90;;;;;;5052380;28;20060;-63
2021/12/22 07:37:47;;;;;;;1999.90;999.90;;;-4.70;99.90;;;;;;5053375;28;20091;-62
2021/12/22 07:40:17;;;;;;;1999.90;999.90;;;-4.60;99.90;;;;;;5060746;28;20159;-62
2021/12/22 07:42:43;;;;;;;1999.90;999.90;;;-4.70;99.90;;;;;;5073040;28;20124;-63
2021/12/22 07:45:11;;;;;;;1999.90;999.90;;;-4.70;99.90;;;;;;5071751;28;20054;-63
2021/12/22 07:47:37;;;;;;;1999.90;999.90;;;-4.70;99.90;;;;;;5072238;28;20046;-62
2021/12/22 07:50:04;;;;;;;1999.90;999.90;;;-4.60;99.90;;;;;;5065580;28;20402;-62
2021/12/22 07:52:30;;;;;;;1999.90;999.90;;;-4.60;99.90;;;;;;5053091;28;20127;-62
2021/12/22 07:54:56;;;;;;;1999.90;999.90;;;-4.60;99.90;;;;;;5052010;28;20141;-62
2021/12/22 07:57:22;;;;;;;1999.90;999.90;;;-4.60;99.90;;;;;;5057062;28;20041;-62
2021/12/22 07:59:48;;;;;;;1999.90;999.90;;;-4.60;99.90;;;;;;5053113;28;20056;-62
2021/12/22 08:02:14;;;;;;;1999.90;999.90;;;-4.60;99.90;;;;;;5059153;28;20045;-62
2021/12/22 08:04:40;;;;;;;1999.90;999.90;;;-4.60;99.90;;;;;;5061783;28;20200;-62
2021/12/22 08:07:07;;;;;;;1999.90;999.90;;;-4.60;99.90;;;;;;5060466;28;20052;-62
2021/12/22 08:09:33;;;;;;;1999.90;999.90;;;-4.60;99.90;;;;;;5060688;28;20483;-62
2021/12/22 08:12:04;;;;;;;1999.90;999.90;;;-4.50;99.90;;;;;;5056454;28;20044;-62
2021/12/22 08:14:32;;;;;;;1999.90;999.90;;;-4.50;99.90;;;;;;5053382;28;20044;-62
2021/12/22 08:16:58;;;;;;;1999.90;999.90;;;-4.40;99.90;;;;;;5060855;28;20054;-62
2021/12/22 08:19:24;;;;;;;1999.90;999.90;;;-4.40;99.90;;;;;;5063117;28;20407;-62
2021/12/22 08:21:50;;;;;;;1999.90;999.90;;;-4.40;99.90;;;;;;5055970;28;20505;-62
2021/12/22 08:24:16;;;;;;;1999.90;999.90;;;-4.40;99.90;;;;;;5052534;28;20479;-62
2021/12/22 08:26:41;;;;;;;1999.90;999.90;;;-4.30;99.90;;;;;;5051737;28;20048;-62
2021/12/22 08:29:07;;;;;;;1999.90;999.90;;;-4.30;99.90;;;;;;5042920;28;20374;-62
2021/12/22 08:31:33;;;;;;;1999.90;999.90;;;-4.30;99.90;;;;;;5044199;28;20047;-62
2021/12/22 08:33:59;;;;;;;1999.90;999.90;;;-4.20;99.90;;;;;;5053542;28;20041;-62
2021/12/22 08:39:11;;;;;;;1999.90;999.90;;;-4.10;99.90;;;;;;5062323;28;20049;-62
2021/12/22 08:41:40;;;;;;;1999.90;999.90;;;-4.10;99.90;;;;;;5058051;28;20028;-62
2021/12/22 08:44:08;;;;;;;1999.90;999.90;;;-4.00;99.90;;;;;;5061838;28;20112;-62
2021/12/22 08:46:37;;;;;;;1999.90;999.90;;;-3.90;99.90;;;;;;5050853;28;20045;-62
2021/12/22 08:49:04;;;;;;;1999.90;999.90;;;-3.90;99.90;;;;;;5031244;28;20049;-62
2021/12/22 08:51:30;;;;;;;1999.90;999.90;;;-3.80;99.90;;;;;;5045525;28;20092;-62
2021/12/22 08:53:56;;;;;;;1999.90;999.90;;;-3.70;99.90;;;;;;5051535;28;20507;-62
2021/12/22 08:56:23;;;;;;;1999.90;999.90;;;-3.70;99.90;;;;;;5056358;28;20037;-62
2021/12/22 08:58:49;;;;;;;1999.90;999.90;;;-3.60;99.90;;;;;;5049227;28;20048;-62
2021/12/22 09:01:15;;;;;;;1999.90;999.90;;;-3.60;99.90;;;;;;5057119;28;20127;-62
2021/12/22 09:03:41;;;;;;;1999.90;999.90;;;-3.50;99.90;;;;;;5051659;28;20099;-62
2021/12/22 09:06:06;;;;;;;1999.90;999.90;;;-3.50;99.90;;;;;;5063045;28;20048;-62
2021/12/22 09:08:32;;;;;;;1999.90;999.90;;;-3.50;99.90;;;;;;5063927;28;20083;-62
2021/12/22 09:10:58;;;;;;;1999.90;999.90;;;-3.40;99.90;;;;;;5059833;28;20123;-62
2021/12/22 09:13:25;;;;;;;1999.90;999.90;;;-3.40;99.90;;;;;;5051176;28;20045;-62
2021/12/22 09:15:51;;;;;;;1999.90;999.90;;;-3.40;99.90;;;;;;5043351;28;20045;-62
2021/12/22 09:18:17;;;;;;;1999.90;999.90;;;-3.30;99.90;;;;;;5061231;28;20059;-62
2021/12/22 09:20:43;;;;;;;1999.90;999.90;;;-3.30;99.90;;;;;;5071077;28;20514;-62
2021/12/22 09:23:09;;;;;;;1999.90;999.90;;;-3.30;99.90;;;;;;5071160;28;20098;-62
2021/12/22 09:25:35;;;;;;;1999.90;999.90;;;-3.20;99.90;;;;;;5056271;28;20534;-62
2021/12/22 09:28:02;;;;;;;1999.90;999.90;;;-3.20;99.90;;;;;;5072777;28;20045;-63
2021/12/22 09:30:35;;;;;;;1999.90;999.90;;;-3.00;99.90;;;;;;5075186;28;20044;-63
2021/12/22 09:33:02;;;;;;;1999.90;999.90;;;-3.00;99.90;;;;;;5074098;28;20113;-63
2021/12/22 09:35:28;;;;;;;1999.90;999.90;;;-2.90;99.90;;;;;;5065713;28;20067;-63
2021/12/22 09:37:54;;;;;;;1999.90;999.90;;;-2.80;99.90;;;;;;5075289;28;20041;-63
2021/12/22 09:40:20;;;;;;;1999.90;999.90;;;-2.70;99.90;;;;;;5062319;28;20048;-63
2021/12/22 09:42:45;;;;;;;1999.90;999.90;;;-2.60;99.90;;;;;;5035136;28;20053;-63
2021/12/22 09:45:11;;;;;;;1999.90;999.90;;;-2.50;99.90;;;;;;5070046;28;20120;-63
2021/12/22 09:47:52;;;;;;;1999.90;999.90;;;-2.40;99.90;;;;;;5037835;28;20054;-63
2021/12/22 09:50:34;;;;;;;1999.90;999.90;;;-2.40;99.90;;;;;;5065236;28;20055;-63
2021/12/22 09:53:00;;;;;;;1999.90;999.90;;;-2.30;99.90;;;;;;5070082;28;20127;-63
2021/12/22 09:55:26;;;;;;;1999.90;999.90;;;-2.00;99.90;;;;;;5065424;28;20132;-63
2021/12/22 09:57:52;;;;;;;1999.90;999.90;;;-1.80;99.90;;;;;;5062728;28;20186;-63
2021/12/22 10:00:17;;;;;;;1999.90;999.90;;;-1.70;99.90;;;;;;5065127;28;20546;-63
2021/12/22 10:02:43;;;;;;;1999.90;999.90;;;-1.70;99.90;;;;;;5064118;28;20079;-63
2021/12/22 10:05:09;;;;;;;1999.90;999.90;;;-1.70;99.90;;;;;;5058103;28;20056;-62
2021/12/22 10:07:38;;;;;;;1999.90;999.90;;;-1.50;99.90;;;;;;5053590;28;20102;-62
2021/12/22 10:10:08;;;;;;;1999.90;999.90;;;-1.50;99.90;;;;;;5058016;28;20048;-63
2021/12/22 10:12:35;;;;;;;1999.90;999.90;;;-1.40;99.90;;;;;;5074773;28;20045;-63
2021/12/22 10:15:05;;;;;;;1999.90;999.90;;;-1.50;99.90;;;;;;5072662;28;20113;-63
2021/12/22 10:17:36;;;;;;;1999.90;999.90;;;-1.50;99.90;;;;;;5074526;28;20487;-63
2021/12/22 10:20:08;;;;;;;1999.90;999.90;;;-1.20;99.90;;;;;;5073604;28;20045;-63
2021/12/22 10:22:45;;;;;;;1999.90;999.90;;;-0.90;99.90;;;;;;5067859;28;20430;-63
2021/12/22 10:25:17;;;;;;;1999.90;999.90;;;-0.90;99.90;;;;;;5054441;28;20294;-63
2021/12/22 10:27:55;;;;;;;1999.90;999.90;;;-0.50;99.90;;;;;;5054510;28;20049;-63
2021/12/22 10:30:25;;;;;;;1999.90;999.90;;;-0.40;99.90;;;;;;5052388;28;20071;-62
2021/12/22 10:33:05;;;;;;;1999.90;999.90;;;-0.40;99.90;;;;;;5054424;28;20499;-62
2021/12/22 10:35:33;;;;;;;1999.90;999.90;;;-0.10;99.90;;;;;;5054569;28;20087;-62
2021/12/22 10:38:02;;;;;;;1999.90;999.90;;;-0.30;99.90;;;;;;5067108;28;20109;-62
2021/12/22 10:40:30;;;;;;;1999.90;999.90;;;-0.30;99.90;;;;;;5074127;28;20040;-63
2021/12/22 10:42:58;;;;;;;1999.90;999.90;;;-0.40;99.90;;;;;;5073640;28;20089;-63
2021/12/22 10:45:26;;;;;;;1999.90;999.90;;;-0.30;99.90;;;;;;5071377;28;20056;-62
2021/12/22 10:50:41;;;;;;;1999.90;999.90;;;-0.10;99.90;;;;;;5053362;28;20560;-63
2021/12/22 10:53:08;;;;;;;1999.90;999.90;;;0.10;99.90;;;;;;5053652;28;20045;-63
2021/12/22 10:55:38;;;;;;;1999.90;999.90;;;0.00;99.90;;;;;;5064791;28;20056;-63
2021/12/22 10:58:16;;;;;;;1999.90;999.90;;;0.20;99.90;;;;;;5063572;28;20391;-62
2021/12/22 11:00:42;;;;;;;1999.90;999.90;;;0.10;99.90;;;;;;5060989;28;20037;-63
2021/12/22 11:03:13;;;;;;;1999.90;999.90;;;0.20;99.90;;;;;;5064741;28;20398;-63
2021/12/22 11:05:47;;;;;;;1999.90;999.90;;;0.40;99.90;;;;;;5064375;28;20037;-62
2021/12/22 11:08:20;;;;;;;1999.90;999.90;;;0.10;99.90;;;;;;5060143;28;20049;-63
2021/12/22 11:10:47;;;;;;;1999.90;999.90;;;-0.10;99.90;;;;;;5062202;28;20048;-62
2021/12/22 11:13:19;;;;;;;1999.90;999.90;;;-0.30;99.90;;;;;;5062751;28;20044;-62
2021/12/22 11:15:45;;;;;;;1999.90;999.90;;;-0.50;99.90;;;;;;5064170;28;20048;-63
2021/12/22 11:18:30;;;;;;;1999.90;999.90;;;-0.40;99.90;;;;;;5061821;28;20120;-62
2021/12/22 11:21:12;;;;;;;1999.90;999.90;;;-0.40;99.90;;;;;;5063207;28;20052;-62
2021/12/22 11:23:39;;;;;;;1999.90;999.90;;;-0.40;99.90;;;;;;5067163;28;20041;-62
2021/12/22 11:26:06;;;;;;;1999.90;999.90;;;-0.40;99.90;;;;;;5062121;28;20056;-62
2021/12/22 11:28:34;;;;;;;1999.90;999.90;;;-0.50;99.90;;;;;;5055732;28;20601;-62
2021/12/22 11:31:02;;;;;;;1999.90;999.90;;;-0.50;99.90;;;;;;5056790;28;20494;-63
2021/12/22 11:33:30;;;;;;;1999.90;999.90;;;-0.40;99.90;;;;;;5052509;28;20495;-63
2021/12/22 11:35:56;;;;;;;1999.90;999.90;;;-0.40;99.90;;;;;;5053248;28;20049;-63
2021/12/22 11:38:23;;;;;;;1999.90;999.90;;;-0.20;99.90;;;;;;5055163;28;20052;-63
2021/12/22 11:40:55;;;;;;;1999.90;999.90;;;-0.10;99.90;;;;;;5072404;28;20394;-63
2021/12/22 11:43:22;;;;;;;1999.90;999.90;;;0.00;99.90;;;;;;5072778;28;20486;-63
2021/12/22 11:45:49;;;;;;;1999.90;999.90;;;0.10;99.90;;;;;;5070793;28;20127;-63
2021/12/22 11:48:16;;;;;;;1999.90;999.90;;;0.20;99.90;;;;;;5052059;28;20403;-63
2021/12/22 11:50:47;;;;;;;1999.90;999.90;;;0.30;99.90;;;;;;5051883;28;20098;-63
2021/12/22 11:53:13;;;;;;;1999.90;999.90;;;0.40;99.90;;;;;;5052376;28;20055;-63
2021/12/22 11:55:45;;;;;;;1999.90;999.90;;;0.40;99.90;;;;;;5049803;28;20048;-62
2021/12/22 11:58:14;;;;;;;1999.90;999.90;;;0.40;99.90;;;;;;5047233;28;20041;-63
2021/12/22 12:00:43;;;;;;;1999.90;999.90;;;0.30;99.90;;;;;;5035513;28;20045;-63
2021/12/22 12:03:28;;;;;;;1999.90;999.90;;;0.40;99.90;;;;;;5047873;28;20041;-63
2021/12/22 12:06:07;;;;;;;1999.90;999.90;;;0.50;99.90;;;;;;5052185;28;20418;-63
2021/12/22 12:08:37;;;;;;;1999.90;999.90;;;0.50;99.90;;;;;;5070450;28;20131;-63
2021/12/22 12:11:06;;;;;;;1999.90;999.90;;;0.50;99.90;;;;;;5072639;28;20082;-63
2021/12/22 12:13:37;;;;;;;1999.90;999.90;;;0.60;99.90;;;;;;5061955;28;20657;-63
2021/12/22 12:22:08;;;;;;;1999.90;999.90;;;0.60;99.90;;;;;;5051431;28;20045;-63
2021/12/22 12:24:38;;;;;;;1999.90;999.90;;;0.60;99.90;;;;;;5050454;28;20054;-63
2021/12/22 12:27:31;;;;;;;1999.90;999.90;;;0.60;99.90;;;;;;5047692;28;20104;-63
2021/12/22 12:29:59;;;;;;;1999.90;999.90;;;0.20;99.90;;;;;;5031124;28;20061;-63